createdAt,value
2023-04-21T00:00:59.295Z,3.95
2023-04-21T00:03:29.018Z,3.90
2023-04-21T00:05:59.161Z,3.83
2023-04-21T00:08:27.291Z,3.80
2023-04-21T00:10:54.851Z,4.32
2023-04-21T00:13:23.254Z,4.30
2023-04-21T00:15:51.635Z,4.30
2023-04-21T00:18:19.234Z,4.00
2023-04-21T00:20:46.909Z,4.03
2023-04-21T00:23:14.455Z,3.92
2023-04-21T00:25:42.119Z,4.13
2023-04-21T00:28:09.795Z,3.92
2023-04-21T00:30:38.661Z,3.88
2023-04-21T00:33:06.865Z,3.83
2023-04-21T00:35:34.449Z,3.63
2023-04-21T00:38:02.250Z,3.70
2023-04-21T00:40:30.254Z,3.80
2023-04-21T00:42:58.857Z,3.17
2023-04-21T00:45:26.511Z,4.10
2023-04-21T00:47:54.253Z,3.80
2023-04-21T00:50:21.983Z,3.72
2023-04-21T00:52:50.791Z,3.97
2023-04-21T00:55:18.511Z,4.07
2023-04-21T00:57:46.488Z,3.78
2023-04-21T01:00:15.535Z,3.92
2023-04-21T01:02:45.904Z,3.70
2023-04-21T01:05:16.972Z,3.70
2023-04-21T01:07:45.562Z,3.42
2023-04-21T01:10:13.332Z,4.18
2023-04-21T01:12:48.400Z,3.83
2023-04-21T01:17:45.830Z,3.80
2023-04-21T01:20:15.451Z,3.75
2023-04-21T01:22:45.352Z,3.75
2023-04-21T01:25:12.891Z,3.78
2023-04-21T01:27:40.640Z,3.78
2023-04-21T01:30:10.312Z,3.40
2023-04-21T01:32:38.292Z,4.00
2023-04-21T01:35:06.858Z,3.13
2023-04-21T01:37:35.764Z,3.85
2023-04-21T01:40:07.667Z,3.90
2023-04-21T01:42:38.933Z,3.15
2023-04-21T01:45:08.034Z,3.40
2023-04-21T01:47:38.191Z,3.72
2023-04-21T01:50:08.295Z,3.67
2023-04-21T01:52:35.979Z,3.80
2023-04-21T01:55:03.872Z,3.63
2023-04-21T01:57:31.898Z,3.38
2023-04-21T01:59:59.866Z,3.22
2023-04-21T02:02:30.523Z,3.47
2023-04-21T02:04:58.663Z,3.50
2023-04-21T02:07:27.915Z,3.45
2023-04-21T02:09:55.537Z,3.50
2023-04-21T02:12:23.114Z,3.20
2023-04-21T02:14:51.036Z,3.42
2023-04-21T02:17:19.129Z,3.78
2023-04-21T02:19:48.268Z,3.53
2023-04-21T02:22:15.835Z,3.20
2023-04-21T02:24:43.715Z,3.47
2023-04-21T02:27:13.086Z,3.63
2023-04-21T02:29:40.934Z,3.38
2023-04-21T02:32:22.308Z,3.95
2023-04-21T02:34:53.312Z,3.38
2023-04-21T02:37:21.404Z,3.92
2023-04-21T02:39:49.083Z,3.10
2023-04-21T02:42:16.769Z,3.60
2023-04-21T02:44:44.434Z,3.33
2023-04-21T02:47:12.114Z,3.78
2023-04-21T02:49:43.485Z,3.15
2023-04-21T02:52:12.889Z,3.53
2023-04-21T02:54:40.618Z,3.33
2023-04-21T02:57:08.125Z,3.45
2023-04-21T02:59:35.601Z,3.10
2023-04-21T03:02:03.171Z,2.95
2023-04-21T03:04:32.819Z,3.40
2023-04-21T03:07:00.695Z,3.05
2023-04-21T03:09:28.594Z,2.92
2023-04-21T03:11:56.238Z,3.45
2023-04-21T03:14:24.157Z,3.08
2023-04-21T03:16:58.398Z,3.30
2023-04-21T03:19:26.332Z,2.97
2023-04-21T03:21:53.851Z,3.47
2023-04-21T03:24:21.758Z,3.17
2023-04-21T03:26:49.542Z,3.05
2023-04-21T03:29:17.359Z,3.35
2023-04-21T03:31:45.354Z,3.28
2023-04-21T03:34:13.067Z,3.50
2023-04-21T03:36:41.373Z,3.15
2023-04-21T03:39:19.259Z,3.35
2023-04-21T03:41:48.499Z,3.10
2023-04-21T03:44:16.426Z,2.88
2023-04-21T03:46:46.733Z,3.30
2023-04-21T03:49:14.403Z,3.30
2023-04-21T03:51:42.292Z,3.35
2023-04-21T03:54:09.920Z,3.33
2023-04-21T03:56:37.607Z,3.00
2023-04-21T03:59:06.400Z,3.58
2023-04-21T04:05:41.214Z,3.72
2023-04-21T04:08:09.295Z,3.67
2023-04-21T04:10:37.093Z,3.50
2023-04-21T04:13:04.707Z,3.30
2023-04-21T04:15:32.304Z,3.45
2023-04-21T04:18:00.215Z,3.20
2023-04-21T04:20:31.195Z,3.58
2023-04-21T04:22:59.067Z,3.50
2023-04-21T04:25:27.326Z,3.50
2023-04-21T04:27:55.723Z,3.10
2023-04-21T04:30:25.112Z,3.42
2023-04-21T04:32:53.382Z,3.30
2023-04-21T04:35:21.596Z,3.15
2023-04-21T04:37:50.016Z,3.08
2023-04-21T04:40:17.730Z,3.50
2023-04-21T04:42:47.306Z,3.40
2023-04-21T04:45:16.885Z,3.30
2023-04-21T04:47:46.113Z,3.40
2023-04-21T04:50:13.865Z,3.33
2023-04-21T04:52:41.417Z,3.33
2023-04-21T04:55:09.169Z,3.45
2023-04-21T04:57:36.952Z,2.85
2023-04-21T05:00:09.022Z,3.17
2023-04-21T05:02:37.039Z,3.72
2023-04-21T05:05:07.216Z,2.92
2023-04-21T05:07:35.556Z,3.28
2023-04-21T05:10:04.865Z,3.17
2023-04-21T05:12:32.660Z,3.63
2023-04-21T05:15:00.534Z,3.45
2023-04-21T05:17:28.966Z,3.85
2023-04-21T05:19:56.963Z,3.70
2023-04-21T05:22:24.860Z,4.15
2023-04-21T05:24:53.616Z,4.03
2023-04-21T05:27:23.195Z,4.45
2023-04-21T05:29:50.923Z,4.22
2023-04-21T05:32:18.632Z,5.07
2023-04-21T05:34:46.591Z,4.45
2023-04-21T05:37:14.362Z,4.57
2023-04-21T05:39:42.081Z,5.07
2023-04-21T05:42:12.926Z,4.80
2023-04-21T05:44:40.903Z,4.80
2023-04-21T05:47:09.000Z,5.20
2023-04-21T05:49:36.654Z,4.00
2023-04-21T05:52:04.258Z,4.32
2023-04-21T05:54:33.103Z,4.35
2023-04-21T05:57:01.644Z,4.53
2023-04-21T05:59:29.288Z,4.07
2023-04-21T06:01:56.886Z,3.95
2023-04-21T06:04:27.312Z,4.38
2023-04-21T06:06:55.453Z,4.03
2023-04-21T06:09:23.197Z,3.70
2023-04-21T06:11:51.078Z,4.25
2023-04-21T06:14:19.413Z,4.80
2023-04-21T06:16:47.184Z,3.55
2023-04-21T06:19:14.903Z,4.30
2023-04-21T06:21:42.666Z,4.20
2023-04-21T06:24:10.250Z,4.28
2023-04-21T06:26:37.830Z,3.92
2023-04-21T06:29:05.226Z,4.05
2023-04-21T06:31:32.723Z,4.38
2023-04-21T06:34:00.477Z,4.05
2023-04-21T06:36:28.863Z,4.10
2023-04-21T06:38:57.148Z,4.65
2023-04-21T06:41:24.960Z,4.88
2023-04-21T06:43:52.517Z,3.88
2023-04-21T06:46:20.288Z,3.83
2023-04-21T06:48:47.916Z,3.78
2023-04-21T06:51:15.912Z,4.28
2023-04-21T06:53:43.551Z,3.67
2023-04-21T06:56:11.409Z,3.78
2023-04-21T06:58:38.927Z,3.72
2023-04-21T07:01:06.704Z,4.22
2023-04-21T07:03:34.335Z,4.22
2023-04-21T07:06:02.256Z,4.35
2023-04-21T07:08:30.097Z,3.92
2023-04-21T07:10:57.978Z,4.47
2023-04-21T07:13:25.826Z,4.60
2023-04-21T07:15:54.243Z,4.22
2023-04-21T07:18:21.957Z,3.92
2023-04-21T07:20:49.632Z,4.55
2023-04-21T07:23:17.411Z,4.70
2023-04-21T07:25:45.730Z,3.75
2023-04-21T07:28:15.419Z,4.47
2023-04-21T07:30:43.611Z,5.07
2023-04-21T07:33:11.514Z,5.53
2023-04-21T07:35:39.107Z,4.97
2023-04-21T07:38:06.801Z,5.13
2023-04-21T07:40:34.581Z,5.97
2023-04-21T07:43:02.115Z,5.05
2023-04-21T07:45:30.291Z,4.60
2023-04-21T07:47:58.111Z,4.93
2023-04-21T07:50:26.438Z,4.80
2023-04-21T07:52:54.712Z,5.45
2023-04-21T07:55:22.580Z,4.38
2023-04-21T07:57:50.796Z,4.10
2023-04-21T08:00:18.954Z,4.95
2023-04-21T08:02:46.846Z,4.75
2023-04-21T08:05:14.735Z,3.70
2023-04-21T08:07:42.829Z,4.15
2023-04-21T08:10:11.363Z,4.65
2023-04-21T08:12:39.649Z,4.75
2023-04-21T08:15:08.683Z,4.20
2023-04-21T08:17:36.674Z,4.47
2023-04-21T08:20:05.606Z,4.35
2023-04-21T08:22:33.994Z,4.57
2023-04-21T08:25:02.023Z,5.63
2023-04-21T08:27:30.221Z,4.10
2023-04-21T08:29:58.906Z,4.07
2023-04-21T08:32:27.797Z,4.90
2023-04-21T08:34:56.099Z,4.50
2023-04-21T08:37:23.959Z,4.32
2023-04-21T08:39:52.082Z,3.63
2023-04-21T08:42:20.625Z,3.67
2023-04-21T08:44:49.132Z,4.28
2023-04-21T08:47:17.610Z,4.72
2023-04-21T08:49:45.619Z,4.32
2023-04-21T08:52:15.096Z,4.30
2023-04-21T08:54:43.724Z,4.68
2023-04-21T08:57:15.700Z,4.50
2023-04-21T08:59:45.607Z,4.07
2023-04-21T09:02:16.411Z,4.35
2023-04-21T09:04:55.424Z,3.92
2023-04-21T09:07:39.606Z,4.40
2023-04-21T09:10:08.370Z,4.47
2023-04-21T09:12:36.196Z,4.05
2023-04-21T09:15:09.195Z,4.25
2023-04-21T09:17:38.909Z,4.22
2023-04-21T09:20:20.005Z,4.10
2023-04-21T09:22:51.619Z,4.35
2023-04-21T09:25:23.968Z,4.75
2023-04-21T09:27:54.611Z,4.68
2023-04-21T09:30:22.978Z,4.50
2023-04-21T09:32:50.989Z,4.07
2023-04-21T09:35:19.013Z,4.07
2023-04-21T09:37:47.109Z,4.80
2023-04-21T09:40:18.995Z,3.35
2023-04-21T09:42:47.282Z,4.35
2023-04-21T09:48:00.177Z,4.38
2023-04-21T09:53:02.897Z,3.55
2023-04-21T09:55:32.181Z,3.13
2023-04-21T09:58:02.405Z,3.67
2023-04-21T10:00:32.115Z,4.05
2023-04-21T10:03:05.964Z,4.05
2023-04-21T10:05:35.118Z,3.85
2023-04-21T10:08:03.298Z,3.67
2023-04-21T10:10:35.940Z,4.03
2023-04-21T10:13:05.381Z,3.58
2023-04-21T10:15:34.509Z,3.67
2023-04-21T10:18:24.078Z,3.75
2023-04-21T10:21:02.798Z,3.70
2023-04-21T10:23:44.162Z,3.42
2023-04-21T10:26:21.340Z,3.92
2023-04-21T10:28:59.847Z,4.00
2023-04-21T10:31:52.471Z,3.22
2023-04-21T10:34:38.393Z,3.67
2023-04-21T10:37:06.640Z,3.30
2023-04-21T10:39:44.651Z,4.00
2023-04-21T10:42:21.108Z,3.85
2023-04-21T10:45:05.370Z,3.67
2023-04-21T10:47:46.493Z,3.22
2023-04-21T10:50:22.486Z,3.58
2023-04-21T10:53:11.542Z,3.20
2023-04-21T10:55:42.548Z,3.72
2023-04-21T10:58:10.503Z,3.25
2023-04-21T11:00:39.132Z,3.88
2023-04-21T11:03:10.923Z,4.05
2023-04-21T11:05:41.574Z,3.60
2023-04-21T11:08:14.862Z,3.90
2023-04-21T11:11:00.143Z,3.50
2023-04-21T11:13:35.123Z,2.95
2023-04-21T11:16:08.632Z,2.75
2023-04-21T11:18:43.054Z,3.97
2023-04-21T11:21:24.860Z,3.63
2023-04-21T11:23:57.403Z,3.53
2023-04-21T11:26:42.820Z,3.63
2023-04-21T11:31:49.350Z,3.75
2023-04-21T11:34:21.170Z,3.53
2023-04-21T11:36:49.693Z,3.83
2023-04-21T11:39:21.721Z,4.47
2023-04-21T11:41:52.421Z,4.38
2023-04-21T11:44:42.108Z,4.30
2023-04-21T11:47:21.584Z,4.75
2023-04-21T11:50:02.513Z,4.25
2023-04-21T11:52:43.686Z,4.45
2023-04-21T11:55:19.000Z,4.97
2023-04-21T11:57:46.962Z,4.45
2023-04-21T12:00:15.942Z,4.32
2023-04-21T12:02:44.629Z,3.72
2023-04-21T12:05:13.966Z,3.83
2023-04-21T12:07:48.338Z,3.88
2023-04-21T12:10:21.588Z,4.07
2023-04-21T12:12:49.763Z,4.28
2023-04-21T12:15:21.921Z,4.00
2023-04-21T12:17:54.933Z,4.82
2023-04-21T12:20:25.279Z,4.53
2023-04-21T12:22:53.761Z,4.25
2023-04-21T12:25:22.056Z,4.25
2023-04-21T12:27:57.804Z,4.40
2023-04-21T12:30:26.082Z,5.10
2023-04-21T12:32:55.966Z,3.45
2023-04-21T12:35:24.486Z,4.43
2023-04-21T12:37:52.305Z,5.00
2023-04-21T12:40:20.207Z,4.55
2023-04-21T12:42:49.215Z,4.95
2023-04-21T12:45:17.056Z,4.03
2023-04-21T12:47:46.858Z,4.32
2023-04-21T12:50:15.052Z,4.55
2023-04-21T12:52:42.827Z,4.20
2023-04-21T12:55:10.712Z,3.78
2023-04-21T12:57:38.842Z,4.15
2023-04-21T13:00:08.928Z,4.40
2023-04-21T13:02:38.728Z,4.57
2023-04-21T13:05:07.411Z,4.40
2023-04-21T13:07:35.530Z,4.88
2023-04-21T13:10:06.759Z,3.60
2023-04-21T13:12:34.918Z,4.43
2023-04-21T13:15:03.578Z,3.80
2023-04-21T13:17:31.887Z,5.35
2023-04-21T13:20:01.418Z,4.35
2023-04-21T13:22:29.580Z,4.05
2023-04-21T13:24:58.106Z,4.28
2023-04-21T13:27:26.715Z,4.50
2023-04-21T13:29:54.824Z,3.70
2023-04-21T13:32:23.098Z,4.25
2023-04-21T13:34:51.388Z,5.10
2023-04-21T13:37:19.960Z,4.05
2023-04-21T13:39:47.874Z,4.13
2023-04-21T13:42:15.733Z,5.05
2023-04-21T13:44:43.498Z,4.35
2023-04-21T13:47:11.558Z,4.00
2023-04-21T13:49:39.776Z,4.18
2023-04-21T13:52:07.753Z,4.47
2023-04-21T13:54:35.509Z,4.13
2023-04-21T13:57:03.477Z,3.88
2023-04-21T13:59:34.985Z,4.28
2023-04-21T14:02:02.874Z,4.28
2023-04-21T14:04:31.281Z,3.85
2023-04-21T14:07:02.027Z,3.90
2023-04-21T14:09:31.468Z,4.18
2023-04-21T14:12:00.083Z,4.18
2023-04-21T14:14:38.844Z,4.70
2023-04-21T14:17:08.446Z,4.00
2023-04-21T14:19:37.189Z,3.50
2023-04-21T14:22:05.385Z,3.25
2023-04-21T14:24:33.480Z,3.80
2023-04-21T14:27:01.564Z,4.22
2023-04-21T14:29:29.590Z,3.80
2023-04-21T14:31:58.980Z,3.53
2023-04-21T14:34:26.665Z,3.40
2023-04-21T14:36:55.013Z,3.13
2023-04-21T14:39:25.610Z,3.88
2023-04-21T14:41:54.000Z,3.97
2023-04-21T14:44:21.877Z,3.38
2023-04-21T14:46:57.464Z,3.85
2023-04-21T14:49:34.410Z,3.55
2023-04-21T14:52:03.966Z,3.67
2023-04-21T14:54:31.845Z,4.00
2023-04-21T14:57:17.580Z,3.10
2023-04-21T14:59:47.015Z,3.42
2023-04-21T15:02:17.266Z,3.75
2023-04-21T15:04:46.811Z,3.45
2023-04-21T15:07:17.247Z,3.20
2023-04-21T15:09:48.843Z,3.22
2023-04-21T15:12:16.672Z,3.08
2023-04-21T15:14:44.742Z,3.33
2023-04-21T15:17:12.515Z,3.60
2023-04-21T15:19:40.146Z,3.08
2023-04-21T15:22:08.114Z,3.63
2023-04-21T15:24:36.694Z,3.10
2023-04-21T15:27:04.509Z,3.00
2023-04-21T15:29:32.640Z,3.47
2023-04-21T15:32:01.068Z,3.50
2023-04-21T15:34:28.777Z,3.45
2023-04-21T15:36:56.987Z,2.90
2023-04-21T15:39:24.960Z,3.40
2023-04-21T15:41:53.940Z,3.40
2023-04-21T15:44:21.732Z,3.72
2023-04-21T15:46:49.533Z,3.70
2023-04-21T15:49:17.405Z,3.03
2023-04-21T15:51:45.129Z,3.30
2023-04-21T15:54:12.897Z,3.33
2023-04-21T15:56:40.540Z,3.40
2023-04-21T15:59:08.239Z,3.35
2023-04-21T16:01:36.253Z,3.45
2023-04-21T16:04:05.676Z,3.47
2023-04-21T16:06:33.773Z,3.42
2023-04-21T16:09:02.184Z,3.67
2023-04-21T16:11:30.213Z,4.05
2023-04-21T16:13:57.994Z,3.08
2023-04-21T16:16:25.889Z,3.25
2023-04-21T16:18:53.607Z,3.67
2023-04-21T16:21:21.888Z,3.35
2023-04-21T16:23:50.061Z,4.13
2023-04-21T16:26:17.842Z,3.85
2023-04-21T16:28:46.016Z,4.07
2023-04-21T16:31:13.704Z,3.50
2023-04-21T16:33:41.283Z,3.58
2023-04-21T16:36:09.149Z,4.10
2023-04-21T16:38:36.824Z,3.72
2023-04-21T16:41:04.661Z,3.72
2023-04-21T16:43:32.628Z,3.03
2023-04-21T16:46:00.605Z,3.38
2023-04-21T16:48:28.764Z,3.63
2023-04-21T16:50:56.672Z,3.72
2023-04-21T16:53:26.027Z,3.80
2023-04-21T16:55:54.121Z,3.58
2023-04-21T16:58:22.419Z,4.03
2023-04-21T17:00:50.235Z,3.28
2023-04-21T17:03:18.209Z,3.83
2023-04-21T17:05:46.524Z,3.40
2023-04-21T17:08:15.527Z,3.53
2023-04-21T17:10:43.245Z,3.92
2023-04-21T17:13:10.967Z,3.60
2023-04-21T17:15:38.851Z,3.17
2023-04-21T17:18:06.722Z,3.70
2023-04-21T17:20:35.373Z,3.25
2023-04-21T17:23:02.929Z,3.35
2023-04-21T17:25:30.963Z,3.53
2023-04-21T17:27:58.831Z,3.75
2023-04-21T17:30:26.760Z,3.50
2023-04-21T17:33:04.131Z,3.67
2023-04-21T17:35:36.495Z,3.60
2023-04-21T17:38:04.048Z,3.55
2023-04-21T17:40:31.649Z,4.25
2023-04-21T17:43:00.840Z,3.90
2023-04-21T17:45:28.858Z,4.00
2023-04-21T17:47:56.604Z,4.00
2023-04-21T17:50:27.652Z,4.55
2023-04-21T17:52:55.387Z,3.55
2023-04-21T17:55:23.467Z,4.10
2023-04-21T17:57:51.375Z,3.92
2023-04-21T18:00:20.260Z,4.40
2023-04-21T18:02:48.275Z,3.85
2023-04-21T18:05:17.316Z,4.80
2023-04-21T18:07:45.072Z,3.92
2023-04-21T18:10:13.108Z,4.05
2023-04-21T18:12:41.488Z,4.18
2023-04-21T18:15:10.583Z,4.30
2023-04-21T18:17:38.651Z,3.72
2023-04-21T18:20:07.337Z,4.50
2023-04-21T18:22:34.869Z,4.25
2023-04-21T18:25:02.669Z,4.15
2023-04-21T18:27:30.404Z,4.05
2023-04-21T18:29:58.020Z,4.32
2023-04-21T18:32:25.860Z,4.70
2023-04-21T18:34:54.065Z,4.80
2023-04-21T18:37:21.813Z,3.88
2023-04-21T18:39:49.495Z,4.60
2023-04-21T18:42:17.081Z,4.70
2023-04-21T18:44:44.926Z,5.13
2023-04-21T18:47:12.712Z,4.32
2023-04-21T18:49:40.984Z,4.30
2023-04-21T18:52:09.511Z,4.60
2023-04-21T18:54:37.352Z,4.40
2023-04-21T18:57:06.336Z,4.18
2023-04-21T18:59:35.608Z,4.28
2023-04-21T19:02:04.305Z,3.83
2023-04-21T19:04:31.946Z,4.43
2023-04-21T19:07:00.323Z,4.40
2023-04-21T19:09:28.827Z,5.07
2023-04-21T19:11:56.374Z,4.30
2023-04-21T19:14:25.144Z,4.13
2023-04-21T19:16:53.308Z,5.45
2023-04-21T19:19:21.705Z,5.22
2023-04-21T19:21:50.519Z,4.30
2023-04-21T19:24:18.087Z,4.55
2023-04-21T19:26:46.560Z,4.63
2023-04-21T19:29:15.266Z,4.28
2023-04-21T19:31:42.876Z,4.25
2023-04-21T19:34:10.828Z,4.68
2023-04-21T19:36:39.598Z,4.57
2023-04-21T19:39:07.833Z,3.95
2023-04-21T19:41:36.862Z,3.97
2023-04-21T19:44:05.935Z,4.43
2023-04-21T19:46:33.918Z,4.55
2023-04-21T19:49:02.219Z,4.50
2023-04-21T19:51:30.556Z,4.53
2023-04-21T19:54:10.082Z,3.85
2023-04-21T19:56:39.895Z,5.68
2023-04-21T19:59:07.986Z,6.07
2023-04-21T20:01:35.782Z,5.13
2023-04-21T20:04:04.657Z,5.07
2023-04-21T20:06:33.045Z,5.13
2023-04-21T20:09:06.179Z,5.57
2023-04-21T20:11:34.478Z,6.00
2023-04-21T20:14:02.991Z,5.30
2023-04-21T20:16:32.090Z,5.95
2023-04-21T20:19:00.833Z,5.28
2023-04-21T20:21:28.956Z,4.70
2023-04-21T20:23:56.696Z,5.38
2023-04-21T20:26:24.248Z,5.88
2023-04-21T20:28:51.952Z,5.47
2023-04-21T20:31:24.017Z,5.35
2023-04-21T20:33:51.883Z,5.65
2023-04-21T20:36:19.941Z,5.05
2023-04-21T20:38:49.750Z,5.07
2023-04-21T20:41:17.720Z,5.03
2023-04-21T20:43:45.771Z,4.95
2023-04-21T20:46:15.840Z,5.05
2023-04-21T20:48:43.621Z,4.85
2023-04-21T20:51:11.399Z,4.85
2023-04-21T20:53:38.831Z,4.63
2023-04-21T20:56:06.600Z,5.25
2023-04-21T20:58:36.345Z,4.53
2023-04-21T21:01:04.253Z,4.90
2023-04-21T21:03:32.166Z,4.95
2023-04-21T21:06:00.665Z,4.60
2023-04-21T21:08:30.864Z,4.28
2023-04-21T21:10:58.955Z,4.70
2023-04-21T21:13:26.832Z,5.32
2023-04-21T21:15:55.337Z,4.38
2023-04-21T21:18:23.311Z,4.30
2023-04-21T21:20:51.157Z,4.50
2023-04-21T21:23:18.621Z,4.28
2023-04-21T21:25:46.542Z,4.47
2023-04-21T21:28:14.478Z,4.50
2023-04-21T21:30:42.332Z,4.60
2023-04-21T21:33:10.273Z,5.03
2023-04-21T21:35:38.198Z,10.63
2023-04-21T21:38:06.043Z,10.25
2023-04-21T21:40:34.038Z,10.70
2023-04-21T21:43:01.767Z,10.75
2023-04-21T21:45:30.065Z,11.30
2023-04-21T21:47:58.880Z,11.35
2023-04-21T21:50:27.016Z,9.88
2023-04-21T21:52:54.809Z,9.93
2023-04-21T21:55:22.672Z,9.52
2023-04-21T21:57:50.178Z,9.85
2023-04-21T22:00:18.933Z,9.63
2023-04-21T22:02:47.053Z,8.45
2023-04-21T22:05:15.261Z,8.20
2023-04-21T22:07:43.335Z,8.13
2023-04-21T22:10:13.042Z,7.78
2023-04-21T22:12:41.472Z,7.78
2023-04-21T22:15:09.628Z,7.93
2023-04-21T22:17:38.290Z,7.78
2023-04-21T22:20:08.737Z,7.40
2023-04-21T22:22:36.707Z,7.68
2023-04-21T22:25:04.720Z,7.55
2023-04-21T22:27:34.097Z,7.28
2023-04-21T22:30:03.523Z,7.40
2023-04-21T22:32:32.603Z,7.15
2023-04-21T22:35:01.636Z,7.30
2023-04-21T22:37:30.004Z,8.40
2023-04-21T22:39:57.905Z,8.52
2023-04-21T22:42:26.851Z,7.90
2023-04-21T22:44:54.427Z,8.77
2023-04-21T22:47:22.889Z,9.15
2023-04-21T22:49:51.612Z,10.07
2023-04-21T22:52:19.350Z,9.93
2023-04-21T22:54:47.028Z,9.23
2023-04-21T22:57:15.214Z,10.13
2023-04-21T22:59:43.003Z,9.02
2023-04-21T23:02:14.035Z,10.20
2023-04-21T23:04:41.766Z,8.98
2023-04-21T23:07:09.340Z,8.73
2023-04-21T23:09:37.181Z,8.10
2023-04-21T23:12:06.355Z,8.55
2023-04-21T23:14:34.311Z,8.35
2023-04-21T23:17:02.188Z,8.13
2023-04-21T23:19:30.237Z,6.93
2023-04-21T23:21:57.940Z,7.25
2023-04-21T23:24:25.709Z,8.25
2023-04-21T23:26:53.222Z,7.30
2023-04-21T23:29:21.248Z,7.82
2023-04-21T23:31:49.088Z,8.57
2023-04-21T23:34:16.856Z,8.25
2023-04-21T23:36:44.521Z,8.70
2023-04-21T23:39:12.297Z,8.65
2023-04-21T23:41:39.996Z,9.02
2023-04-21T23:44:07.944Z,9.57
2023-04-21T23:46:36.307Z,8.82
2023-04-21T23:49:04.304Z,9.20
2023-04-21T23:51:32.256Z,9.13
2023-04-21T23:54:01.758Z,10.60
2023-04-21T23:56:29.841Z,10.52
2023-04-21T23:58:57.527Z,10.98
